Eisenstadt, Austria
Current Conditions -  °F | °C
As of 12:20 AM on Tuesday 25 Nov 2014 (Local Time) from LOWW Reporting Station
Broken Clouds Broken Clouds  
Wind Chill: 33°   Ceiling: 7500
Heat Index: 39°   Visibility: 5mi
Dew Point: 36°   Wind: 9mph
Humidity: 87%   Direction: 140°SE
Pressure: 30.3"   Gusts: NA
Location:  47.91°N, 16.7°E
Report Text: LOWW 242220Z 14008KT 8000 SCT025 BKN075 04/02 Q1026 NOSIG
Loading
Personal Weather Stations






























Interactive Weather Map New forecast layout! Learn more

10-Day Weather Forecast

Advertisements
Track Severe Weather on mobile